Time;durP1;ratioP1;P1;durP2;ratioP2;P2;SDS_P1;SDS_P2;PMS_P1;PMS_P2;Temp;Humidity;BMP_temperature;BMP_pressure;BME280_temperature;BME280_humidity;BME280_pressure;Samples;Min_cycle;Max_cycle;Signal;HPM_P1;HPM_P2
2023/06/30 00:02:19;;;;;;;0.50;0.50;;;16.60;99.90;;;;;;5138355;27;20095;-71
2023/06/30 00:04:47;;;;;;;0.50;0.50;;;16.60;99.90;;;;;;5138853;27;20118;-71
2023/06/30 00:07:13;;;;;;;0.40;0.40;;;16.50;99.90;;;;;;5138486;27;20035;-71
2023/06/30 00:09:39;;;;;;;0.40;0.40;;;16.50;99.90;;;;;;5138466;27;20041;-71
2023/06/30 00:12:05;;;;;;;0.40;0.40;;;16.50;99.90;;;;;;5138528;27;20050;-71
2023/06/30 00:14:30;;;;;;;0.50;0.50;;;16.40;99.90;;;;;;5138965;27;20050;-71
2023/06/30 00:16:56;;;;;;;0.50;0.50;;;16.40;99.90;;;;;;5138698;27;20035;-71
2023/06/30 00:19:23;;;;;;;0.50;0.50;;;16.40;99.90;;;;;;5138314;27;20501;-71
2023/06/30 00:21:52;;;;;;;0.60;0.60;;;16.40;99.90;;;;;;5138328;27;20039;-71
2023/06/30 00:24:18;;;;;;;0.50;0.50;;;16.30;99.90;;;;;;5138113;27;20042;-71
2023/06/30 00:26:44;;;;;;;0.40;0.40;;;16.20;99.90;;;;;;5138178;27;20031;-72
2023/06/30 00:29:10;;;;;;;0.40;0.40;;;16.20;99.90;;;;;;5137921;27;20074;-71
2023/06/30 00:31:36;;;;;;;0.50;0.50;;;16.20;99.90;;;;;;5138123;27;20108;-71
2023/06/30 00:34:01;;;;;;;0.50;0.50;;;16.10;99.90;;;;;;5138263;27;20046;-71
2023/06/30 00:36:29;;;;;;;0.50;0.50;;;16.10;99.90;;;;;;5137963;27;20280;-71
2023/06/30 00:38:54;;;;;;;0.40;0.40;;;16.00;99.90;;;;;;5137923;27;20374;-71
2023/06/30 00:41:21;;;;;;;0.60;0.60;;;16.10;99.90;;;;;;5138451;27;20039;-71
2023/06/30 00:43:47;;;;;;;0.50;0.50;;;15.90;99.90;;;;;;5137910;27;20343;-71
2023/06/30 00:46:15;;;;;;;0.50;0.50;;;16.00;99.90;;;;;;5138091;27;20054;-72
2023/06/30 00:48:41;;;;;;;0.43;0.43;;;15.90;99.90;;;;;;5137715;27;20027;-71
2023/06/30 00:51:07;;;;;;;0.40;0.40;;;16.00;99.90;;;;;;5136651;27;20080;-71
2023/06/30 00:53:33;;;;;;;0.40;0.40;;;15.90;99.90;;;;;;5137656;27;20042;-71
2023/06/30 00:55:58;;;;;;;0.60;0.60;;;15.90;99.90;;;;;;5137682;27;20043;-71
2023/06/30 00:58:24;;;;;;;0.40;0.40;;;15.90;99.90;;;;;;5137731;27;20078;-71
2023/06/30 01:00:59;;;;;;;0.50;0.50;;;15.80;99.90;;;;;;5137533;27;20042;-71
2023/06/30 01:03:33;;;;;;;0.40;0.40;;;15.80;99.90;;;;;;5137480;27;20511;-71
2023/06/30 01:06:10;;;;;;;0.40;0.40;;;15.80;99.90;;;;;;5137387;27;20031;-71
2023/06/30 01:08:51;;;;;;;0.50;0.50;;;15.80;99.90;;;;;;5137473;27;20047;-71
2023/06/30 01:11:18;;;;;;;0.40;0.40;;;15.70;99.90;;;;;;5137442;27;20031;-71
2023/06/30 01:13:44;;;;;;;0.63;0.63;;;15.70;99.90;;;;;;5137329;27;20035;-71
2023/06/30 01:16:11;;;;;;;0.47;0.47;;;15.50;99.90;;;;;;5137353;27;20057;-71
2023/06/30 01:18:41;;;;;;;0.40;0.40;;;15.50;99.90;;;;;;5137209;27;20140;-71
2023/06/30 01:21:12;;;;;;;0.40;0.40;;;15.50;99.90;;;;;;5137454;27;20043;-71
2023/06/30 01:23:45;;;;;;;0.40;0.40;;;15.40;99.90;;;;;;5119338;27;20043;-71
2023/06/30 01:26:11;;;;;;;0.40;0.40;;;15.40;99.90;;;;;;5137270;27;20035;-71
2023/06/30 01:28:37;;;;;;;0.50;0.50;;;15.30;99.90;;;;;;5136950;27;20042;-71
2023/06/30 01:31:08;;;;;;;0.40;0.40;;;15.20;99.90;;;;;;5136871;27;20364;-71
2023/06/30 01:33:36;;;;;;;0.40;0.40;;;15.10;99.90;;;;;;5137412;27;20050;-71
2023/06/30 01:36:02;;;;;;;0.40;0.40;;;15.20;99.90;;;;;;5118522;27;20035;-71
2023/06/30 01:38:28;;;;;;;0.40;0.40;;;15.10;99.90;;;;;;5136912;27;20491;-71
2023/06/30 01:40:54;;;;;;;0.40;0.40;;;15.10;99.90;;;;;;5137101;27;20336;-71
2023/06/30 01:43:20;;;;;;;0.50;0.50;;;15.10;99.90;;;;;;5136753;27;20047;-71
2023/06/30 01:45:46;;;;;;;0.40;0.40;;;15.00;99.90;;;;;;5136582;27;20143;-71
2023/06/30 01:48:12;;;;;;;0.50;0.50;;;15.00;99.90;;;;;;5137160;27;20491;-71
2023/06/30 01:50:38;;;;;;;0.50;0.50;;;14.90;99.90;;;;;;5136630;27;20510;-71
2023/06/30 01:53:04;;;;;;;0.40;0.40;;;15.00;99.90;;;;;;5136512;27;20099;-71
2023/06/30 01:55:30;;;;;;;0.30;0.30;;;14.90;99.90;;;;;;5136331;27;20042;-71
2023/06/30 01:57:55;;;;;;;0.50;0.50;;;14.90;99.90;;;;;;5136504;27;20049;-71
2023/06/30 02:00:21;;;;;;;0.40;0.40;;;14.80;99.90;;;;;;5136358;27;20043;-71
2023/06/30 02:02:46;;;;;;;0.40;0.40;;;14.80;99.90;;;;;;5136637;27;20138;-71
2023/06/30 02:05:12;;;;;;;0.43;0.43;;;14.70;99.90;;;;;;5136455;27;20070;-71
2023/06/30 02:07:38;;;;;;;0.40;0.40;;;14.70;99.90;;;;;;5135759;27;20031;-71
2023/06/30 02:10:04;;;;;;;0.50;0.50;;;14.70;99.90;;;;;;5135739;27;20100;-71
2023/06/30 02:12:30;;;;;;;0.40;0.40;;;14.60;99.90;;;;;;5117958;27;20427;-71
2023/06/30 02:14:55;;;;;;;0.40;0.40;;;14.60;99.90;;;;;;5136055;27;20118;-71
2023/06/30 02:17:31;;;;;;;0.40;0.40;;;14.70;99.90;;;;;;5152114;27;20093;-71
2023/06/30 02:19:57;;;;;;;0.40;0.40;;;14.50;99.90;;;;;;5117941;27;20598;-71
2023/06/30 02:22:23;;;;;;;0.40;0.40;;;14.40;99.90;;;;;;5136018;27;20042;-71
2023/06/30 02:24:48;;;;;;;0.40;0.40;;;14.40;99.90;;;;;;5136086;27;20340;-71
2023/06/30 02:27:16;;;;;;;0.40;0.40;;;14.30;99.90;;;;;;5135884;27;20031;-71
2023/06/30 02:29:43;;;;;;;0.30;0.30;;;14.30;99.90;;;;;;5135710;27;20043;-71
2023/06/30 02:32:09;;;;;;;0.43;0.43;;;14.20;99.90;;;;;;5135774;27;20047;-71
2023/06/30 02:34:34;;;;;;;0.40;0.40;;;14.10;99.90;;;;;;5135739;27;20046;-71
2023/06/30 02:37:00;;;;;;;0.40;0.40;;;14.10;99.90;;;;;;5135662;27;20466;-71
2023/06/30 02:39:26;;;;;;;0.40;0.40;;;14.10;99.90;;;;;;5135637;27;20042;-71
2023/06/30 02:41:52;;;;;;;0.40;0.40;;;14.10;99.90;;;;;;5135621;27;20088;-71
2023/06/30 02:44:17;;;;;;;0.40;0.40;;;14.00;99.90;;;;;;5135477;27;20115;-71
2023/06/30 02:46:43;;;;;;;0.40;0.40;;;14.00;99.90;;;;;;5135647;27;20152;-71
2023/06/30 02:49:09;;;;;;;0.40;0.40;;;13.90;99.90;;;;;;5135797;27;20035;-71
2023/06/30 02:51:35;;;;;;;0.40;0.40;;;13.90;99.90;;;;;;5135594;27;20100;-71
2023/06/30 02:54:00;;;;;;;0.40;0.40;;;13.90;99.90;;;;;;5117268;27;20046;-71
2023/06/30 02:56:26;;;;;;;0.40;0.40;;;13.90;99.90;;;;;;5151570;27;20118;-71
2023/06/30 02:58:52;;;;;;;0.40;0.40;;;13.80;99.90;;;;;;5135272;27;20381;-71
2023/06/30 03:01:21;;;;;;;0.40;0.40;;;13.80;99.90;;;;;;5135254;27;20043;-71
2023/06/30 03:03:49;;;;;;;0.63;0.63;;;13.80;99.90;;;;;;5135176;27;20055;-71
2023/06/30 03:06:15;;;;;;;0.40;0.40;;;13.70;99.90;;;;;;5134930;27;20455;-70
2023/06/30 03:08:41;;;;;;;0.40;0.40;;;13.70;99.90;;;;;;5135084;27;20042;-71
2023/06/30 03:11:07;;;;;;;0.40;0.40;;;13.70;99.90;;;;;;5134925;27;20039;-71
2023/06/30 03:13:33;;;;;;;0.40;0.40;;;13.60;99.90;;;;;;5134904;27;20038;-71
2023/06/30 03:15:58;;;;;;;0.65;0.65;;;13.60;99.90;;;;;;5134651;27;20050;-71
2023/06/30 03:18:24;;;;;;;0.40;0.40;;;13.50;99.90;;;;;;5134982;27;20035;-71
2023/06/30 03:20:50;;;;;;;0.40;0.40;;;13.50;99.90;;;;;;5134016;27;20049;-71
2023/06/30 03:23:17;;;;;;;0.40;0.40;;;13.40;99.90;;;;;;5134793;27;20042;-71
2023/06/30 03:25:43;;;;;;;0.50;0.50;;;13.40;99.90;;;;;;5134808;27;20092;-71
2023/06/30 03:28:08;;;;;;;0.50;0.50;;;13.40;99.90;;;;;;5134729;27;20459;-71
2023/06/30 03:30:34;;;;;;;0.43;0.43;;;13.30;99.90;;;;;;5134884;27;20122;-71
2023/06/30 03:33:00;;;;;;;0.40;0.40;;;13.30;99.90;;;;;;5134814;27;20047;-71
2023/06/30 03:35:25;;;;;;;0.40;0.40;;;13.20;99.90;;;;;;5134722;27;20035;-71
2023/06/30 03:37:51;;;;;;;0.50;0.50;;;13.20;99.90;;;;;;5134707;27;20070;-71
2023/06/30 03:40:17;;;;;;;0.40;0.40;;;13.20;99.90;;;;;;5134500;27;20039;-71
2023/06/30 03:42:42;;;;;;;0.50;0.50;;;13.20;99.90;;;;;;5134636;28;20077;-71
2023/06/30 03:45:08;;;;;;;0.40;0.40;;;13.10;99.90;;;;;;5134734;28;20032;-70
2023/06/30 03:47:34;;;;;;;0.40;0.40;;;13.20;99.90;;;;;;5134534;28;20087;-71
2023/06/30 03:50:00;;;;;;;0.40;0.40;;;13.10;99.90;;;;;;5134626;28;20039;-71
2023/06/30 03:52:25;;;;;;;0.40;0.40;;;13.20;99.90;;;;;;5134862;28;20054;-71
2023/06/30 03:54:51;;;;;;;0.40;0.40;;;13.20;99.90;;;;;;5134651;28;20172;-70
2023/06/30 03:57:17;;;;;;;0.47;0.47;;;13.10;99.90;;;;;;5134626;28;20039;-70
2023/06/30 03:59:42;;;;;;;0.50;0.50;;;13.10;99.90;;;;;;5134954;28;20079;-70
2023/06/30 04:02:08;;;;;;;0.47;0.47;;;13.10;99.90;;;;;;5134540;28;20043;-71
2023/06/30 04:04:34;;;;;;;0.40;0.40;;;13.10;99.90;;;;;;5134796;28;20378;-71
2023/06/30 04:07:00;;;;;;;0.40;0.40;;;13.20;99.90;;;;;;5134420;28;20042;-71
2023/06/30 04:09:25;;;;;;;0.50;0.50;;;13.10;99.90;;;;;;5134495;28;20031;-71
2023/06/30 04:11:52;;;;;;;0.40;0.40;;;13.20;99.90;;;;;;5134486;28;20031;-71
2023/06/30 04:14:17;;;;;;;0.40;0.40;;;13.10;99.90;;;;;;5134400;28;20378;-71
2023/06/30 04:16:43;;;;;;;0.50;0.50;;;13.20;99.90;;;;;;5134394;28;20277;-71
2023/06/30 04:19:08;;;;;;;0.50;0.50;;;13.20;99.90;;;;;;5134438;28;20075;-71
2023/06/30 04:21:34;;;;;;;0.50;0.50;;;13.10;99.90;;;;;;5134404;28;20035;-71
2023/06/30 04:24:00;;;;;;;0.50;0.50;;;13.20;99.90;;;;;;5134299;28;20371;-71
2023/06/30 04:26:25;;;;;;;0.40;0.40;;;13.10;99.90;;;;;;5134140;28;20486;-71
2023/06/30 04:28:51;;;;;;;0.50;0.50;;;13.30;99.90;;;;;;5134276;28;20035;-70
2023/06/30 04:31:17;;;;;;;0.50;0.50;;;13.30;99.90;;;;;;5135536;27;20493;-71
2023/06/30 04:33:43;;;;;;;0.47;0.47;;;13.30;99.90;;;;;;5120189;27;20035;-70
2023/06/30 04:36:08;;;;;;;0.55;0.55;;;13.40;99.90;;;;;;5137885;27;20482;-71
2023/06/30 04:38:34;;;;;;;0.43;0.43;;;13.40;99.90;;;;;;5138038;27;20039;-71
2023/06/30 04:41:00;;;;;;;0.40;0.40;;;13.40;99.90;;;;;;5138172;27;20047;-71
2023/06/30 04:43:26;;;;;;;0.40;0.40;;;13.50;99.90;;;;;;5137908;27;20118;-71
2023/06/30 04:45:51;;;;;;;0.40;0.40;;;13.50;99.90;;;;;;5137864;27;20466;-71
2023/06/30 04:48:17;;;;;;;0.40;0.40;;;13.50;99.90;;;;;;5119627;27;20039;-71
2023/06/30 04:50:43;;;;;;;0.40;0.40;;;13.50;99.90;;;;;;5137802;27;20485;-71
2023/06/30 04:53:09;;;;;;;0.40;0.40;;;13.50;99.90;;;;;;5137695;27;20031;-71
2023/06/30 04:55:34;;;;;;;0.60;0.60;;;13.50;99.90;;;;;;5137762;27;20043;-71
2023/06/30 04:58:00;;;;;;;0.40;0.40;;;13.50;99.90;;;;;;5137653;27;20069;-71
2023/06/30 05:00:26;;;;;;;0.40;0.40;;;13.40;99.90;;;;;;5119530;27;20512;-71
2023/06/30 05:02:52;;;;;;;0.40;0.40;;;13.40;99.90;;;;;;5137690;27;20097;-71
2023/06/30 05:05:18;;;;;;;0.40;0.40;;;13.50;99.90;;;;;;5119148;27;20131;-71
2023/06/30 05:07:45;;;;;;;0.43;0.43;;;13.50;99.90;;;;;;5137384;27;20125;-70
2023/06/30 05:10:11;;;;;;;;;;;13.50;99.90;;;;;;5137994;27;20035;-71
2023/06/30 05:12:36;;;;;;;0.40;0.40;;;13.50;99.90;;;;;;5137355;27;19915;-71
2023/06/30 05:15:02;;;;;;;0.50;0.50;;;13.50;99.90;;;;;;5137762;27;20117;-71
2023/06/30 05:17:28;;;;;;;0.50;0.50;;;13.50;99.90;;;;;;5137323;27;20039;-71
2023/06/30 05:19:54;;;;;;;0.50;0.50;;;13.50;99.90;;;;;;5137206;27;20356;-71
2023/06/30 05:22:20;;;;;;;0.40;0.40;;;13.50;99.90;;;;;;5137236;27;20103;-71
2023/06/30 05:24:46;;;;;;;0.40;0.40;;;13.50;99.90;;;;;;5118478;27;20043;-71
2023/06/30 05:27:11;;;;;;;0.47;0.47;;;13.70;99.90;;;;;;5136977;27;20114;-71
2023/06/30 05:29:37;;;;;;;0.50;0.50;;;13.90;99.90;;;;;;5137147;27;20096;-71
2023/06/30 05:32:03;;;;;;;0.40;0.40;;;14.10;99.90;;;;;;5119200;27;20042;-71
2023/06/30 05:34:29;;;;;;;0.40;0.40;;;14.50;99.90;;;;;;5137499;27;20043;-71
2023/06/30 05:36:55;;;;;;;0.40;0.40;;;14.90;99.90;;;;;;5137010;27;20356;-71
2023/06/30 05:39:22;;;;;;;0.40;0.40;;;15.30;99.90;;;;;;5136861;27;20478;-71
2023/06/30 05:41:48;;;;;;;0.45;0.45;;;15.70;99.90;;;;;;5136863;27;20031;-71
2023/06/30 05:44:13;;;;;;;0.40;0.40;;;16.10;99.90;;;;;;5135559;27;20133;-71
2023/06/30 05:46:39;;;;;;;0.37;0.37;;;16.50;99.90;;;;;;5136411;27;20482;-71
2023/06/30 05:49:06;;;;;;;0.50;0.50;;;16.80;99.90;;;;;;5137068;27;20091;-71
2023/06/30 05:51:35;;;;;;;0.40;0.40;;;17.10;99.90;;;;;;5136915;27;20031;-71
2023/06/30 05:54:02;;;;;;;0.40;0.40;;;17.50;99.90;;;;;;5136725;27;20375;-71
2023/06/30 05:56:29;;;;;;;0.50;0.50;;;17.80;99.90;;;;;;5136497;27;20058;-71
2023/06/30 05:58:55;;;;;;;0.40;0.40;;;18.10;99.90;;;;;;5136317;27;20176;-71
2023/06/30 06:01:20;;;;;;;0.40;0.40;;;18.40;99.90;;;;;;5136427;27;20084;-71
2023/06/30 06:03:47;;;;;;;0.60;0.60;;;18.50;99.90;;;;;;5136144;27;20050;-71
2023/06/30 06:06:13;;;;;;;0.40;0.40;;;18.60;99.90;;;;;;5136255;27;20127;-71
2023/06/30 06:08:40;;;;;;;0.40;0.40;;;18.70;99.90;;;;;;5136358;27;20075;-71
2023/06/30 06:11:05;;;;;;;0.40;0.40;;;18.90;99.90;;;;;;5136169;27;20035;-71
2023/06/30 06:13:36;;;;;;;0.60;0.60;;;19.00;99.90;;;;;;5135893;27;20119;-71
2023/06/30 06:16:03;;;;;;;0.40;0.40;;;19.10;99.90;;;;;;5136102;27;20035;-71
2023/06/30 06:18:29;;;;;;;0.40;0.40;;;19.20;99.90;;;;;;5136104;27;20093;-71
2023/06/30 06:20:56;;;;;;;0.40;0.40;;;19.20;99.90;;;;;;5136282;27;20463;-71
2023/06/30 06:23:21;;;;;;;0.40;0.40;;;19.30;99.90;;;;;;5135961;27;20061;-71
2023/06/30 06:25:48;;;;;;;0.40;0.40;;;19.20;99.90;;;;;;5135889;27;20035;-71
2023/06/30 06:28:14;;;;;;;0.40;0.40;;;19.10;99.90;;;;;;5136295;27;20534;-71
2023/06/30 06:30:39;;;;;;;0.40;0.40;;;18.90;99.90;;;;;;5135801;27;20127;-71
2023/06/30 06:33:05;;;;;;;15.27;2.57;;;18.90;99.90;;;;;;5135911;27;20486;-71
2023/06/30 06:35:31;;;;;;;0.30;0.30;;;19.10;99.90;;;;;;5152036;27;20100;-71
2023/06/30 06:37:57;;;;;;;0.40;0.40;;;19.10;99.90;;;;;;5135675;27;20483;-71
2023/06/30 06:40:22;;;;;;;0.40;0.40;;;19.20;99.90;;;;;;5135726;27;20462;-71
2023/06/30 06:42:48;;;;;;;0.30;0.30;;;19.10;99.90;;;;;;5136057;27;20042;-71
2023/06/30 06:45:14;;;;;;;0.30;0.30;;;19.10;99.90;;;;;;5135759;27;20054;-71
2023/06/30 06:48:20;;;;;;;0.40;0.40;;;19.00;99.90;;;;;;5135435;27;20039;-71
2023/06/30 06:50:57;;;;;;;0.40;0.40;;;19.00;99.90;;;;;;5135139;27;20455;-71
2023/06/30 06:53:25;;;;;;;0.30;0.30;;;19.00;99.90;;;;;;5135647;27;20039;-71
2023/06/30 06:55:52;;;;;;;0.30;0.30;;;19.10;99.90;;;;;;5135186;27;20427;-71
2023/06/30 06:58:19;;;;;;;1.35;1.25;;;19.20;99.90;;;;;;5135279;27;20466;-71
2023/06/30 07:00:49;;;;;;;;;;;19.40;99.90;;;;;;5135715;27;20035;-71
2023/06/30 07:03:15;;;;;;;0.30;0.30;;;19.40;99.90;;;;;;5135329;27;19915;-72
2023/06/30 07:05:43;;;;;;;0.60;0.60;;;19.50;99.90;;;;;;5135124;27;20051;-71
2023/06/30 07:08:09;;;;;;;0.30;0.30;;;19.70;99.90;;;;;;5135165;27;20034;-71
2023/06/30 07:10:35;;;;;;;0.30;0.30;;;19.90;99.90;;;;;;5135072;27;20035;-71
2023/06/30 07:13:02;;;;;;;0.30;0.30;;;20.10;99.90;;;;;;5116671;27;20050;-71
2023/06/30 07:15:28;;;;;;;0.30;0.30;;;20.10;99.90;;;;;;5135185;27;20039;-71
2023/06/30 07:17:55;;;;;;;0.30;0.30;;;20.20;99.90;;;;;;5135011;27;20043;-72
2023/06/30 07:20:22;;;;;;;0.55;0.55;;;20.20;99.90;;;;;;5134666;27;20079;-72
2023/06/30 07:22:48;;;;;;;0.30;0.30;;;20.10;99.90;;;;;;5134910;27;20039;-71
2023/06/30 07:25:13;;;;;;;0.30;0.30;;;20.00;99.90;;;;;;5134942;27;20080;-71
2023/06/30 07:27:39;;;;;;;0.37;0.37;;;19.80;99.90;;;;;;5134764;27;20486;-72
2023/06/30 07:30:06;;;;;;;0.30;0.30;;;19.70;99.90;;;;;;5151120;27;20070;-71
2023/06/30 07:32:33;;;;;;;0.40;0.40;;;19.60;99.90;;;;;;5134532;27;20031;-72
2023/06/30 07:35:01;;;;;;;0.55;0.30;;;19.60;99.90;;;;;;5134461;27;20037;-71
2023/06/30 07:37:27;;;;;;;0.30;0.30;;;19.50;99.90;;;;;;5134744;27;20046;-71
2023/06/30 07:39:53;;;;;;;0.30;0.30;;;19.70;99.90;;;;;;5134436;27;20039;-71
2023/06/30 07:42:18;;;;;;;0.30;0.30;;;19.80;99.90;;;;;;5117063;28;20054;-71
2023/06/30 07:44:44;;;;;;;0.30;0.30;;;19.80;99.90;;;;;;5134786;28;20129;-71
2023/06/30 07:47:10;;;;;;;0.30;0.30;;;19.80;99.90;;;;;;5116330;28;20046;-71
2023/06/30 07:49:35;;;;;;;0.30;0.30;;;19.80;99.90;;;;;;5133670;28;20128;-72
2023/06/30 07:52:01;;;;;;;0.30;0.30;;;19.60;99.90;;;;;;5116190;28;20088;-71
2023/06/30 07:54:27;;;;;;;0.30;0.30;;;19.50;99.90;;;;;;5134683;28;20130;-71
2023/06/30 07:56:52;;;;;;;0.30;0.30;;;19.40;99.90;;;;;;5134648;28;20041;-71
2023/06/30 07:59:18;;;;;;;0.30;0.30;;;19.40;99.90;;;;;;5134591;28;20515;-71
2023/06/30 08:01:44;;;;;;;0.40;0.40;;;19.50;99.90;;;;;;5134604;28;20144;-71
2023/06/30 08:04:11;;;;;;;0.40;0.40;;;19.70;99.90;;;;;;5135037;28;20065;-71
2023/06/30 08:06:36;;;;;;;;;;;19.90;99.90;;;;;;5136590;27;20035;-71
2023/06/30 08:09:02;;;;;;;0.38;0.38;;;20.10;99.90;;;;;;5138622;27;19922;-72
2023/06/30 08:11:27;;;;;;;0.40;0.40;;;20.30;99.90;;;;;;5138841;27;20039;-71
2023/06/30 08:13:53;;;;;;;0.30;0.30;;;20.40;99.90;;;;;;5138502;27;20126;-71
2023/06/30 08:16:19;;;;;;;0.50;0.50;;;20.30;99.90;;;;;;5138653;27;20028;-71
2023/06/30 08:18:44;;;;;;;0.30;0.30;;;20.40;99.90;;;;;;5138415;27;20539;-71
2023/06/30 08:21:10;;;;;;;0.30;0.30;;;20.40;99.90;;;;;;5138438;27;20490;-71
2023/06/30 08:23:36;;;;;;;0.53;0.53;;;20.50;99.90;;;;;;5138745;27;20035;-71
2023/06/30 08:26:01;;;;;;;0.30;0.30;;;20.60;99.90;;;;;;5138604;27;20076;-72
2023/06/30 08:28:27;;;;;;;0.40;0.40;;;20.70;99.90;;;;;;5138353;27;20043;-71
2023/06/30 08:30:53;;;;;;;0.30;0.30;;;20.70;99.90;;;;;;5138208;27;20031;-71
2023/06/30 08:33:24;;;;;;;0.40;0.40;;;21.00;99.90;;;;;;5138105;27;20046;-71
2023/06/30 08:35:50;;;;;;;0.40;0.40;;;21.10;99.90;;;;;;5138892;27;20047;-71
2023/06/30 08:38:15;;;;;;;0.30;0.30;;;21.00;99.90;;;;;;5138454;27;20053;-71
2023/06/30 08:40:41;;;;;;;0.30;0.30;;;20.70;99.90;;;;;;5138039;27;20041;-71
2023/06/30 08:43:13;;;;;;;0.30;0.30;;;20.50;99.90;;;;;;5137954;27;20035;-71
2023/06/30 08:45:48;;;;;;;0.30;0.30;;;20.40;99.90;;;;;;5138027;27;20459;-71
2023/06/30 08:48:18;;;;;;;0.30;0.30;;;20.40;99.90;;;;;;5137926;27;20064;-71
2023/06/30 08:50:44;;;;;;;0.30;0.30;;;20.70;99.90;;;;;;5137818;27;20043;-71
2023/06/30 08:53:10;;;;;;;0.30;0.30;;;21.00;99.90;;;;;;5137678;27;20062;-72
2023/06/30 08:55:36;;;;;;;0.30;0.30;;;21.20;99.90;;;;;;5137727;27;20031;-71
2023/06/30 08:58:02;;;;;;;0.30;0.30;;;21.10;99.90;;;;;;5119566;27;20042;-72
2023/06/30 09:00:28;;;;;;;0.30;0.30;;;20.90;99.90;;;;;;5137662;27;20443;-71
2023/06/30 09:02:55;;;;;;;0.43;0.43;;;20.70;99.90;;;;;;5137449;27;20054;-71
2023/06/30 09:05:24;;;;;;;0.30;0.30;;;20.70;99.90;;;;;;5138046;27;20420;-71
2023/06/30 09:07:58;;;;;;;0.30;0.30;;;20.70;99.90;;;;;;5137693;27;20050;-71
2023/06/30 09:10:27;;;;;;;0.30;0.30;;;20.90;99.90;;;;;;5137338;27;20039;-71
2023/06/30 09:12:57;;;;;;;0.30;0.30;;;21.20;99.90;;;;;;5137132;27;20082;-71
2023/06/30 09:15:24;;;;;;;0.30;0.30;;;21.40;99.90;;;;;;5137285;27;20047;-71
2023/06/30 09:17:52;;;;;;;0.30;0.30;;;21.50;99.90;;;;;;5135998;27;20050;-71
2023/06/30 09:20:20;;;;;;;0.40;0.40;;;21.30;99.90;;;;;;5137583;27;20370;-71
2023/06/30 09:22:48;;;;;;;0.35;0.35;;;21.10;99.90;;;;;;5137228;27;20061;-71
2023/06/30 09:25:26;;;;;;;0.38;0.38;;;21.10;99.90;;;;;;5137159;27;20039;-71
2023/06/30 09:27:53;;;;;;;0.40;0.40;;;21.30;99.90;;;;;;5136979;27;20082;-71
2023/06/30 09:30:18;;;;;;;0.30;0.30;;;21.60;99.90;;;;;;5137468;27;20137;-71
2023/06/30 09:32:44;;;;;;;0.30;0.30;;;21.70;99.90;;;;;;5137098;27;20122;-71
2023/06/30 09:35:14;;;;;;;0.30;0.30;;;21.90;99.90;;;;;;5137062;27;20487;-71
2023/06/30 09:37:41;;;;;;;0.30;0.30;;;22.10;99.90;;;;;;5136945;27;20043;-72
2023/06/30 09:40:11;;;;;;;0.30;0.30;;;22.30;99.90;;;;;;5136813;27;20502;-71
2023/06/30 09:42:37;;;;;;;0.30;0.30;;;22.50;99.90;;;;;;5118394;27;20095;-71
2023/06/30 09:45:03;;;;;;;0.30;0.30;;;22.40;99.90;;;;;;5136817;27;20035;-71
2023/06/30 09:47:29;;;;;;;0.30;0.30;;;22.10;99.90;;;;;;5136677;27;20030;-71
2023/06/30 09:49:54;;;;;;;0.30;0.30;;;21.90;99.90;;;;;;5136709;27;20087;-72
2023/06/30 09:52:27;;;;;;;0.40;0.40;;;22.00;99.90;;;;;;5136609;27;20038;-71
2023/06/30 09:54:53;;;;;;;0.30;0.30;;;22.30;99.90;;;;;;5136496;27;20534;-71
2023/06/30 09:57:19;;;;;;;0.30;0.30;;;22.50;99.90;;;;;;5136498;27;20035;-71
2023/06/30 09:59:47;;;;;;;0.23;0.23;;;22.70;99.90;;;;;;5136591;27;20046;-71
2023/06/30 10:02:14;;;;;;;0.60;0.47;;;22.70;99.90;;;;;;5136603;27;20043;-70
2023/06/30 10:04:41;;;;;;;0.30;0.30;;;22.90;99.90;;;;;;5136569;27;20047;-71
2023/06/30 10:07:07;;;;;;;0.30;0.30;;;22.80;99.90;;;;;;5118012;27;20082;-71
2023/06/30 10:09:35;;;;;;;0.30;0.30;;;22.80;99.90;;;;;;5136230;27;20035;-71
2023/06/30 10:12:02;;;;;;;0.28;0.28;;;22.70;99.90;;;;;;5136195;27;20368;-71
2023/06/30 10:14:30;;;;;;;0.30;0.30;;;22.90;99.90;;;;;;5136201;27;20420;-72
2023/06/30 10:16:57;;;;;;;0.20;0.20;;;23.10;99.90;;;;;;5135813;27;20035;-73
2023/06/30 10:19:24;;;;;;;0.30;0.30;;;23.40;99.90;;;;;;5136047;27;20055;-71
2023/06/30 10:21:50;;;;;;;0.30;0.30;;;23.70;99.90;;;;;;5136159;27;20097;-71
2023/06/30 10:24:23;;;;;;;0.30;0.30;;;23.80;99.80;;;;;;5135917;27;20031;-71
2023/06/30 10:26:49;;;;;;;0.20;0.20;;;23.80;98.80;;;;;;5135861;27;20174;-71
2023/06/30 10:29:15;;;;;;;0.28;0.28;;;23.50;99.40;;;;;;5135511;27;20061;-72
2023/06/30 10:31:43;;;;;;;0.30;0.30;;;23.20;99.90;;;;;;5135850;27;20039;-73
2023/06/30 10:34:09;;;;;;;0.30;0.30;;;23.00;99.90;;;;;;5135786;27;20043;-72
2023/06/30 10:36:36;;;;;;;0.30;0.30;;;22.80;99.00;;;;;;5135596;27;20039;-72
2023/06/30 10:39:02;;;;;;;;;;;22.80;98.60;;;;;;5136040;27;20039;-72
2023/06/30 10:41:28;;;;;;;0.20;0.20;;;23.00;99.00;;;;;;5136061;27;19948;-71
2023/06/30 10:44:00;;;;;;;0.30;0.30;;;23.20;99.80;;;;;;5135372;27;20035;-72
2023/06/30 10:46:51;;;;;;;0.30;0.30;;;23.40;98.80;;;;;;5135461;27;20038;-72
2023/06/30 10:49:17;;;;;;;0.30;0.30;;;23.30;97.80;;;;;;5135496;27;20081;-72
2023/06/30 10:51:53;;;;;;;0.30;0.30;;;23.10;97.80;;;;;;5135469;27;20064;-72
2023/06/30 10:54:26;;;;;;;0.30;0.30;;;23.10;97.40;;;;;;5135438;27;20115;-71
2023/06/30 10:57:04;;;;;;;0.30;0.30;;;23.10;96.60;;;;;;5135319;27;20104;-72
2023/06/30 10:59:36;;;;;;;0.28;0.28;;;23.00;96.60;;;;;;5135235;27;20043;-72
2023/06/30 11:02:17;;;;;;;0.30;0.30;;;23.20;97.50;;;;;;5135786;27;20047;-72
2023/06/30 11:04:47;;;;;;;0.30;0.30;;;23.50;97.30;;;;;;5135223;27;20072;-72
2023/06/30 11:07:27;;;;;;;0.30;0.30;;;23.60;97.90;;;;;;5135303;27;20443;-72
2023/06/30 11:09:52;;;;;;;0.30;0.30;;;23.60;97.20;;;;;;5135183;27;20054;-71
2023/06/30 11:12:20;;;;;;;0.30;0.30;;;23.40;96.50;;;;;;5135113;27;20035;-71
2023/06/30 11:15:03;;;;;;;0.30;0.30;;;23.40;96.80;;;;;;5135062;27;20039;-72
2023/06/30 11:17:50;;;;;;;0.30;0.30;;;23.10;97.70;;;;;;5135036;27;20043;-72
2023/06/30 11:20:17;;;;;;;0.30;0.30;;;22.80;98.60;;;;;;5134969;27;20039;-72
2023/06/30 11:23:00;;;;;;;0.30;0.30;;;22.70;98.70;;;;;;5134946;27;20035;-71
2023/06/30 11:25:27;;;;;;;0.30;0.30;;;22.50;98.60;;;;;;5135340;27;20035;-72
2023/06/30 11:27:58;;;;;;;0.35;0.35;;;22.50;99.10;;;;;;5134701;27;20074;-71
2023/06/30 11:30:25;;;;;;;0.30;0.30;;;22.40;99.40;;;;;;5116496;27;20441;-71
2023/06/30 11:32:56;;;;;;;0.30;0.30;;;22.30;97.30;;;;;;5134948;27;20043;-72
2023/06/30 11:35:22;;;;;;;0.30;0.30;;;22.20;96.60;;;;;;5134730;27;20035;-72
2023/06/30 11:37:49;;;;;;;0.77;0.77;;;22.10;96.10;;;;;;5134811;27;20035;-72
2023/06/30 11:40:15;;;;;;;;;;;22.10;96.60;;;;;;5135014;27;20035;-72
2023/06/30 11:42:41;;;;;;;0.30;0.30;;;22.30;97.20;;;;;;5134118;27;19984;-72
2023/06/30 11:45:07;;;;;;;0.30;0.30;;;22.70;96.60;;;;;;5134642;28;20122;-71
2023/06/30 11:47:33;;;;;;;0.35;0.35;;;23.10;97.00;;;;;;5134559;28;20352;-71
2023/06/30 11:50:06;;;;;;;0.30;0.30;;;23.50;97.40;;;;;;5134568;28;20130;-72
2023/06/30 11:52:35;;;;;;;0.30;0.30;;;23.80;97.20;;;;;;5134618;28;20504;-72
2023/06/30 11:55:12;;;;;;;0.30;0.30;;;23.90;97.20;;;;;;5134816;28;20510;-72
2023/06/30 11:57:41;;;;;;;0.30;0.30;;;24.20;97.60;;;;;;5134547;28;20378;-72
2023/06/30 12:00:11;;;;;;;0.30;0.30;;;24.40;97.60;;;;;;5134280;28;20083;-72
2023/06/30 12:02:36;;;;;;;0.30;0.30;;;24.20;97.70;;;;;;5134164;28;20043;-73
2023/06/30 12:05:10;;;;;;;0.30;0.30;;;24.30;96.20;;;;;;5116581;28;20043;-71
2023/06/30 12:07:36;;;;;;;0.30;0.30;;;24.40;95.50;;;;;;5134740;28;20159;-73
2023/06/30 12:10:02;;;;;;;0.30;0.30;;;24.60;94.80;;;;;;5150573;27;20491;-73
2023/06/30 12:12:28;;;;;;;0.30;0.30;;;24.80;96.00;;;;;;5134474;28;20038;-72
2023/06/30 12:14:55;;;;;;;1.10;0.93;;;24.90;94.70;;;;;;5134403;28;20169;-72
2023/06/30 12:17:21;;;;;;;0.30;0.30;;;25.10;95.40;;;;;;5134290;28;20039;-72
2023/06/30 12:19:46;;;;;;;0.30;0.30;;;25.00;93.80;;;;;;5134536;28;20039;-73
2023/06/30 12:22:12;;;;;;;0.40;0.40;;;25.10;95.10;;;;;;5134321;28;20050;-72
2023/06/30 12:24:41;;;;;;;0.30;0.30;;;25.30;95.10;;;;;;5134273;28;20043;-71
2023/06/30 12:27:08;;;;;;;0.30;0.30;;;25.40;93.80;;;;;;5134199;28;20043;-71
2023/06/30 12:29:35;;;;;;;0.30;0.30;;;25.50;94.30;;;;;;5134212;28;20045;-71
2023/06/30 12:32:12;;;;;;;0.30;0.30;;;25.50;94.50;;;;;;5134288;28;20043;-73
2023/06/30 12:34:38;;;;;;;0.30;0.30;;;25.40;94.10;;;;;;5134682;28;20043;-73
2023/06/30 12:37:04;;;;;;;;;;;25.50;94.10;;;;;;5134570;28;20281;-72
2023/06/30 12:39:29;;;;;;;0.30;0.30;;;25.20;93.10;;;;;;5134407;28;20464;-72
2023/06/30 12:41:55;;;;;;;0.30;0.30;;;25.00;93.10;;;;;;5134181;28;20122;-71
2023/06/30 12:44:21;;;;;;;0.30;0.30;;;24.80;93.20;;;;;;5134142;28;20475;-71
2023/06/30 12:47:07;;;;;;;0.30;0.30;;;24.60;92.20;;;;;;5134520;28;20039;-72
2023/06/30 12:49:36;;;;;;;0.20;0.20;;;24.60;92.80;;;;;;5133318;28;20321;-72